Time;durP1;ratioP1;P1;durP2;ratioP2;P2;SDS_P1;SDS_P2;PMS_P1;PMS_P2;Temp;Humidity;BMP_temperature;BMP_pressure;BME280_temperature;BME280_humidity;BME280_pressure;Samples;Min_cycle;Max_cycle;Signal;HPM_P1;HPM_P2
2023/08/28 13:47:31;;;;;;;43.05;38.65;;;30.90;99.90;;;;;;6282512;22;20081;-90
2023/08/28 13:49:58;;;;;;;42.38;38.33;;;30.90;99.90;;;;;;6227599;22;20083;-96
2023/08/28 13:52:26;;;;;;;47.50;39.47;;;30.80;99.90;;;;;;6229628;22;19996;-92
2023/08/28 13:54:52;;;;;;;43.70;39.03;;;30.80;99.90;;;;;;6229713;22;20146;-90
2023/08/28 13:57:19;;;;;;;42.67;38.47;;;30.80;99.90;;;;;;6229448;22;20004;-92
2023/08/28 13:59:46;;;;;;;43.17;38.40;;;30.90;99.90;;;;;;6229315;22;20015;-91
2023/08/28 14:02:13;;;;;;;42.70;38.33;;;30.90;99.90;;;;;;6228887;22;20068;-93
2023/08/28 14:04:40;;;;;;;43.08;38.33;;;30.80;99.90;;;;;;6228933;22;20008;-92
2023/08/28 14:07:06;;;;;;;44.55;37.25;;;30.40;99.90;;;;;;6229168;22;20004;-91
2023/08/28 14:09:37;;;;;;;40.65;36.47;;;30.30;99.90;;;;;;6228704;22;20000;-92
2023/08/28 14:12:04;;;;;;;47.65;37.90;;;30.40;99.90;;;;;;6235379;22;20014;-94
2023/08/28 14:14:31;;;;;;;41.60;37.13;;;30.40;99.90;;;;;;6240683;22;20008;-93
2023/08/28 14:16:57;;;;;;;42.53;37.90;;;30.30;99.90;;;;;;6230099;22;20016;-92
2023/08/28 14:19:24;;;;;;;42.83;36.95;;;30.30;99.90;;;;;;6230126;22;20053;-95
2023/08/28 14:21:51;;;;;;;45.72;35.40;;;30.10;99.90;;;;;;6232022;22;20053;-92
2023/08/28 14:24:19;;;;;;;38.67;34.80;;;30.10;99.90;;;;;;6259722;22;20012;-92
2023/08/28 14:26:46;;;;;;;39.58;34.55;;;30.20;99.90;;;;;;6246481;22;20008;-91
2023/08/28 14:29:12;;;;;;;44.88;34.05;;;30.20;99.90;;;;;;6236732;22;20003;-90
2023/08/28 14:31:39;;;;;;;38.67;34.42;;;30.10;99.90;;;;;;6228899;22;20004;-92
2023/08/28 14:34:06;;;;;;;46.65;34.00;;;30.20;99.90;;;;;;6230182;22;20031;-90
2023/08/28 14:36:32;;;;;;;36.78;33.00;;;30.30;99.90;;;;;;6228799;22;20078;-92
2023/08/28 14:39:03;;;;;;;42.63;33.20;;;30.40;99.90;;;;;;6228467;22;20083;-90
2023/08/28 14:41:30;;;;;;;47.10;34.97;;;30.60;99.90;;;;;;6228284;22;20011;-91
2023/08/28 14:43:59;;;;;;;37.92;33.92;;;30.70;99.90;;;;;;6228263;22;20008;-91
2023/08/28 14:46:26;;;;;;;47.47;34.60;;;30.60;99.90;;;;;;6214440;23;20016;-92
2023/08/28 14:48:52;;;;;;;48.22;34.83;;;30.40;99.90;;;;;;6198153;23;20031;-91
2023/08/28 14:51:19;;;;;;;38.85;34.60;;;30.60;99.90;;;;;;6198074;23;20031;-91
2023/08/28 14:53:46;;;;;;;37.13;33.30;;;30.40;99.90;;;;;;6198526;23;20011;-91
2023/08/28 14:56:13;;;;;;;42.58;33.80;;;30.20;99.90;;;;;;6198669;23;20103;-92
2023/08/28 14:58:42;;;;;;;40.42;34.65;;;30.20;99.90;;;;;;6198671;23;20008;-91
2023/08/28 15:01:09;;;;;;;44.35;33.97;;;30.40;99.90;;;;;;6198491;23;20307;-92
2023/08/28 15:03:35;;;;;;;43.17;34.25;;;30.30;99.90;;;;;;6198523;23;20008;-91
2023/08/28 15:06:02;;;;;;;46.05;33.45;;;30.10;99.90;;;;;;6198333;23;20020;-91
2023/08/28 15:08:29;;;;;;;40.47;32.88;;;30.10;99.90;;;;;;6198928;23;20011;-91
2023/08/28 15:10:57;;;;;;;40.97;32.95;;;30.20;99.90;;;;;;6200330;23;20354;-92
2023/08/28 15:13:23;;;;;;;42.65;33.78;;;30.40;99.90;;;;;;6201151;23;20027;-92
2023/08/28 15:15:51;;;;;;;42.28;33.00;;;30.40;99.90;;;;;;6204747;23;20039;-93
2023/08/28 15:18:21;;;;;;;45.53;33.72;;;30.20;99.90;;;;;;6212182;23;20043;-90
2023/08/28 15:20:48;;;;;;;42.05;33.00;;;30.20;99.90;;;;;;6218893;23;20071;-91
2023/08/28 15:23:15;;;;;;;37.30;33.38;;;30.20;99.90;;;;;;6204638;23;20064;-91
2023/08/28 15:25:42;;;;;;;39.72;32.67;;;30.20;99.90;;;;;;6197262;23;20026;-92
2023/08/28 15:28:09;;;;;;;40.67;31.55;;;30.40;99.90;;;;;;6197595;23;20084;-92
2023/08/28 15:30:36;;;;;;;35.58;31.63;;;30.10;99.90;;;;;;6197734;23;20004;-92
2023/08/28 15:33:03;;;;;;;39.15;31.77;;;30.00;99.90;;;;;;6197457;23;20528;-91
2023/08/28 15:35:31;;;;;;;38.13;31.60;;;30.00;99.90;;;;;;6197742;23;20034;-92
2023/08/28 15:37:59;;;;;;;36.30;30.48;;;30.00;99.90;;;;;;6197214;23;20008;-92
2023/08/28 15:40:26;;;;;;;40.50;31.02;;;29.90;99.90;;;;;;6197688;23;20008;-91
2023/08/28 15:42:53;;;;;;;43.25;29.85;;;29.90;99.90;;;;;;6198059;23;20010;-92
2023/08/28 15:45:20;;;;;;;32.20;28.27;;;29.80;99.90;;;;;;6199299;23;20020;-92
2023/08/28 15:47:47;;;;;;;40.08;29.02;;;29.90;99.90;;;;;;6198041;23;20012;-90
2023/08/28 15:50:15;;;;;;;37.92;30.13;;;30.10;99.90;;;;;;6197229;23;20008;-91
2023/08/28 15:52:42;;;;;;;34.08;30.10;;;30.40;99.90;;;;;;6196251;23;20075;-92
2023/08/28 15:55:11;;;;;;;42.10;33.00;;;30.60;99.90;;;;;;6197627;23;20012;-91
2023/08/28 15:57:37;;;;;;;44.95;34.40;;;30.80;99.90;;;;;;6195996;23;20007;-93
2023/08/28 16:00:07;;;;;;;39.55;35.33;;;30.90;99.90;;;;;;6197095;23;20008;-91
2023/08/28 16:02:34;;;;;;;43.92;36.13;;;30.90;99.90;;;;;;6196942;23;20083;-92
2023/08/28 16:05:04;;;;;;;52.90;37.10;;;30.90;99.90;;;;;;6196916;23;20047;-93
2023/08/28 16:07:31;;;;;;;47.70;37.30;;;31.00;99.90;;;;;;6197403;23;20008;-92
2023/08/28 16:10:02;;;;;;;42.63;37.38;;;31.00;99.90;;;;;;6196760;23;20015;-91
2023/08/28 16:12:32;;;;;;;44.17;37.97;;;30.80;99.90;;;;;;6196728;23;20015;-90
2023/08/28 16:14:58;;;;;;;45.28;36.80;;;30.50;99.90;;;;;;6196862;23;20032;-90
2023/08/28 16:17:25;;;;;;;39.42;35.17;;;30.30;99.90;;;;;;6196901;23;20058;-89
2023/08/28 16:19:52;;;;;;;44.78;35.20;;;30.20;99.90;;;;;;6196006;23;20080;-91
2023/08/28 16:22:20;;;;;;;43.13;36.72;;;30.20;99.90;;;;;;6195965;23;20008;-92
2023/08/28 16:24:50;;;;;;;45.85;36.33;;;30.20;99.90;;;;;;6196696;23;20033;-93
2023/08/28 16:27:17;;;;;;;43.00;36.30;;;30.20;99.90;;;;;;6196192;23;20095;-93
2023/08/28 16:29:45;;;;;;;37.85;33.92;;;30.20;99.90;;;;;;6195682;23;20000;-91
2023/08/28 16:32:12;;;;;;;41.90;34.90;;;30.20;99.90;;;;;;6195677;23;20019;-91
2023/08/28 16:34:38;;;;;;;42.72;33.05;;;30.00;99.90;;;;;;6195410;23;20083;-91
2023/08/28 16:37:05;;;;;;;52.35;39.38;;;29.80;99.90;;;;;;6195816;23;20030;-91
2023/08/28 16:39:32;;;;;;;40.50;31.95;;;29.70;99.90;;;;;;6195996;23;20000;-91
2023/08/28 16:41:59;;;;;;;41.65;33.13;;;29.60;99.90;;;;;;6195352;23;20008;-89
2023/08/28 16:44:26;;;;;;;41.13;31.73;;;29.60;99.90;;;;;;6195232;23;20005;-90
2023/08/28 16:46:53;;;;;;;37.45;31.27;;;29.60;99.90;;;;;;6195048;23;20111;-90
2023/08/28 16:49:20;;;;;;;44.50;32.28;;;29.60;99.90;;;;;;6196101;23;20087;-91
2023/08/28 16:51:46;;;;;;;39.17;30.90;;;29.60;99.90;;;;;;6196505;23;20012;-90
2023/08/28 16:54:13;;;;;;;38.13;29.95;;;29.50;99.90;;;;;;6195376;23;20376;-92
2023/08/28 16:56:39;;;;;;;45.92;31.10;;;29.50;99.90;;;;;;6195344;23;20011;-91
2023/08/28 16:59:10;;;;;;;34.20;29.00;;;29.30;99.90;;;;;;6195658;23;20015;-91
2023/08/28 17:01:37;;;;;;;38.33;29.70;;;29.30;99.90;;;;;;6195750;23;20083;-91
2023/08/28 17:04:03;;;;;;;41.83;28.80;;;29.20;99.90;;;;;;6195635;23;20370;-92
2023/08/28 17:06:30;;;;;;;33.80;29.75;;;29.20;99.90;;;;;;6196259;23;20323;-93
2023/08/28 17:08:59;;;;;;;36.58;28.15;;;29.20;99.90;;;;;;6196769;23;20008;-90
2023/08/28 17:11:26;;;;;;;39.03;29.13;;;29.20;99.90;;;;;;6196465;23;20054;-91
2023/08/28 17:13:53;;;;;;;48.10;27.92;;;29.20;99.90;;;;;;6197051;23;20430;-92
2023/08/28 17:16:19;;;;;;;46.65;29.48;;;29.20;99.90;;;;;;6198862;23;20068;-93
2023/08/28 17:18:52;;;;;;;44.05;27.58;;;29.20;99.90;;;;;;6198458;23;20496;-91
2023/08/28 17:21:19;;;;;;;44.78;27.90;;;29.20;99.90;;;;;;6198776;23;20433;-91
